Station: Pearce  

  Atmospheric Gas Attenuation - ITU Rec 676-11   ----------------- dB/100km -----------------
Date Time Temp RH % AH g/m3 Dew Point Wind Direction Speed kph Gust kph Barometer mB Rainfall Since 9am 24GHz 47GHz 76GHz 122GHz 134GHz 241GHz
08/05 09:30 17.5 54 8.05 8.1 17 24 1029.6 0 18.2 24.6 36.6 95.7 88.2 303.1
08/05 09:20 17.3 53 7.81 7.6 22 28 1029.7 0 17.7 24.3 35.8 93.6 85.5 293.4
08/05 09:10 16.9 54 7.77 7.5 15 20 1029.8 0 17.7 24.3 35.8 93.6 85.4 293.2
08/05 09:00 16.8 54 7.72 7.4 15 24 1030 0 17.6 24.3 35.7 93.3 84.9 291.4
08/05 08:50 16.7 55 7.82 7.6 11 13 1030 0 17.8 24.5 36.1 94.4 86.3 296.2
08/05 08:40 16.5 55 7.72 7.4 15 26 1030.1 0 17.6 24.4 35.8 93.6 85.2 292.5
08/05 08:30 16.1 55 7.54 7.1 15 19 1030 0 17.2 24.2 35.3 92.3 83.4 286.1
08/05 08:20 15.8 56 7.54 7 13 15 1029.9 0 17.2 24.3 35.4 92.6 83.7 287.2
08/05 08:10 15.4 58 7.62 7.2 17 26 1029.8 0 17.4 24.5 35.9 93.9 85.2 292.1
08/05 08:00 15.3 58 7.57 7.1 13 15 1029.8 0 17.3 24.5 35.8 93.5 84.6 290.3
08/05 07:50 15 58 7.44 6.8 13 17 1029.7 0 17.1 24.3 35.4 92.5 83.3 285.6
08/05 07:40 14.7 59 7.43 6.8 15 17 1029.6 0 17.0 24.4 35.5 92.7 83.5 286.2
08/05 07:30 14.5 60 7.46 6.8 13 19 1029.5 0 17.1 24.5 35.7 93.2 84.1 288.2
08/05 07:20 14.2 60 7.33 6.6 15 20 1029.4 0 16.9 24.4 35.3 92.2 82.7 283.5
08/05 07:10 14.2 60 7.33 6.6 17 19 1029.3 0 16.9 24.4 35.3 92.2 82.7 283.5
08/05 07:00 13.8 61 7.27 6.4 13 17 1029.2 0 16.7 24.4 35.3 92.1 82.4 282.2
08/05 06:50 14.2 59 7.2 6.3 13 17 1029.1 0 16.6 24.2 34.8 90.9 81.1 277.6
08/05 06:40 14.3 59 7.25 6.4 15 19 1029 0 16.7 24.2 35.0 91.3 81.6 279.5
08/05 06:30 14.4 59 7.29 6.5 13 20 1029.1 0 16.8 24.2 35.1 91.6 82.0 280.9
08/05 06:20 14.4 59 7.29 6.5 13 15 1029 0 16.8 24.2 35.1 91.6 82.0 280.9
08/05 06:10 14.3 59 7.25 6.4 9 15 1029 0 16.7 24.2 35.0 91.3 81.6 279.5
08/05 06:00 14.5 58 7.21 6.3 11 20 1029 0 16.6 24.1 34.7 90.6 80.9 277.0
08/05 05:50 14.4 58 7.17 6.3 11 13 1029 0 16.5 24.1 34.6 90.3 80.5 275.6
08/05 05:40 14.9 57 7.26 6.5 17 20 1028.9 0 16.7 24.1 34.7 90.7 81.1 277.8
08/05 05:30 14.7 57 7.18 6.3 13 22 1029.1 0 16.5 24.0 34.5 90.1 80.3 275.0
08/05 05:20 14.9 57 7.26 6.5 15 17 1028.9 0 16.7 24.1 34.7 90.7 81.1 277.8
08/05 05:10 14.7 56 7.05 6 13 15 1029 0 16.2 23.8 34.0 88.8 78.7 269.3
08/05 05:00 15.2 56 7.27 6.5 17 28 1028.9 0 16.7 24.0 34.6 90.4 80.9 277.2
08/05 04:50 15.2 56 7.27 6.5 19 24 1028.7 0 16.7 24.0 34.6 90.4 80.9 277.2
08/05 04:40 14.9 57 7.26 6.5 13 15 1028.8 0 16.7 24.0 34.7 90.7 81.1 277.8
08/05 04:30 15.1 56 7.22 6.4 13 15 1028.7 0 16.6 23.9 34.5 90.0 80.4 275.3
08/05 04:20 15.4 55 7.23 6.4 17 20 1028.7 0 16.6 23.9 34.4 89.8 80.2 274.7
08/05 04:10 15.8 53 7.13 6.3 13 15 1028.6 0 16.4 23.6 33.8 88.3 78.6 269.0
08/05 04:00 15.6 53 7.05 6.1 11 20 1028.7 0 16.2 23.5 33.6 87.8 77.8 266.3
08/05 03:50 15.6 53 7.05 6.1 9 13 1028.6 0 16.2 23.5 33.6 87.8 77.8 266.2
08/05 03:40 15.7 53 7.09 6.2 13 15 1028.5 0 16.3 23.6 33.7 88.1 78.2 267.6
08/05 03:30 16 53 7.22 6.4 15 24 1028.6 0 16.5 23.7 34.1 89.0 79.5 272.2
08/05 03:20 15.9 53 7.18 6.3 13 17 1028.5 0 16.5 23.7 34.0 88.7 79.1 270.8
08/05 03:10 15.9 53 7.18 6.3 13 17 1028.4 0 16.5 23.7 34.0 88.7 79.1 270.8
08/05 03:00 16.1 52 7.13 6.3 15 24 1028.5 0 16.4 23.5 33.7 88.0 78.2 268.0
08/05 02:50 16.6 51 7.2 6.4 20 24 1028.3 0 16.5 23.5 33.8 88.1 78.6 269.3
08/05 02:40 16.4 52 7.26 6.5 15 19 1028.3 0 16.6 23.6 34.1 89.0 79.5 272.5
08/05 02:30 16.4 51 7.12 6.2 15 26 1028.4 0 16.3 23.4 33.6 87.6 77.8 266.6
08/05 02:20 16.5 51 7.16 6.3 11 15 1028.3 0 16.4 23.5 33.7 87.9 78.2 267.9
08/05 02:10 16.7 50 7.11 6.2 9 15 1028.3 0 16.3 23.3 33.4 87.1 77.4 265.1
08/05 02:00 16.8 50 7.15 6.3 11 20 1028.3 0 16.4 23.4 33.5 87.4 77.8 266.5
08/05 01:50 16.9 49 7.05 6.1 11 15 1028.2 0 16.2 23.2 33.1 86.3 76.5 261.9
08/05 01:40 16.6 50 7.06 6.1 11 15 1028.1 0 16.2 23.3 33.2 86.7 76.9 263.3
08/05 01:30 16.8 49 7.01 6 9 19 1028.3 0 16.1 23.2 33.0 86.1 76.1 260.5
08/05 01:20 16.8 48 6.86 5.7 7 9 1028.2 0 15.8 22.9 32.4 84.6 74.3 254.2
08/05 01:10 16.8 48 6.86 5.7 11 15 1028.2 0 15.8 22.9 32.4 84.6 74.3 254.2
08/05 01:00 17.2 48 7.03 6.1 13 24 1028.3 0 16.1 23.1 32.9 85.8 76.0 260.1
08/05 00:50 17.2 47 6.88 5.8 9 11 1028.2 0 15.8 22.9 32.3 84.4 74.2 253.8
08/05 00:40 17.2 48 7.03 6.1 15 19 1028.2 0 16.1 23.1 32.9 85.8 76.0 260.1
08/05 00:30 17.3 47 6.92 5.9 11 19 1028.4 0 15.9 22.9 32.5 84.7 74.6 255.2
08/05 00:20 17.5 47 7.01 6.1 11 13 1028.2 0 16.0 23.0 32.7 85.3 75.4 258.3
08/05 00:10 17.6 46 6.9 5.9 13 15 1028.3 0 15.8 22.8 32.3 84.1 74.0 253.4
08/05 00:00 17.7 46 6.94 5.9 13 24 1028.4 0 15.9 22.8 32.4 84.4 74.4 254.8
07/05 23:50 17.8 46 6.98 6 4 6 1028.2 0 16.0 22.9 32.5 84.7 74.8 256.1
07/05 23:40 17.7 46 6.94 5.9 13 17 1028.1 0 15.9 22.8 32.4 84.4 74.4 254.7
07/05 23:30 17.7 45 6.79 5.6 9 15 1028.2 0 15.6 22.6 31.8 83.0 72.6 248.5
07/05 23:20 17.9 45 6.87 5.8 9 11 1028 0 15.7 22.7 32.0 83.5 73.4 251.1
07/05 23:10 16.6 48 6.78 5.6 7 9 1028 0 15.6 22.9 32.2 84.0 73.5 251.4
07/05 23:00 16.7 47 6.68 5.3 6 9 1028.1 0 15.4 22.7 31.8 82.9 72.2 246.9
07/05 22:50 17.6 46 6.9 5.9 6 6 1028.1 0 15.8 22.8 32.3 84.1 74.0 253.3
07/05 22:40 17.4 45 6.67 5.4 6 6 1028.1 0 15.3 22.5 31.5 82.1 71.5 244.4
07/05 22:30 17.7 44 6.64 5.3 7 13 1028.1 0 15.3 22.4 31.3 81.5 70.8 242.2
07/05 22:20 17.9 43 6.56 5.2 9 9 1028 0 15.1 22.2 30.9 80.6 69.7 238.3
07/05 22:10 17.7 44 6.64 5.3 7 9 1028 0 15.3 22.4 31.3 81.5 70.8 242.2
07/05 22:00 17.5 44 6.56 5.1 4 11 1028.1 0 15.1 22.3 31.1 81.0 70.1 239.5
07/05 21:50 17.9 42 6.41 4.8 4 6 1027.9 0 14.8 22.0 30.4 79.1 68.0 232.2
07/05 21:40 18.3 41 6.41 4.8 9 11 1027.8 0 14.8 21.9 30.2 78.7 67.6 231.0
07/05 21:30 18.4 41 6.45 4.9 11 19 1027.8 0 14.8 21.9 30.3 79.0 68.0 232.4
07/05 21:20 18.5 41 6.49 5 13 15 1027.7 0 14.9 22.0 30.4 79.3 68.4 233.7
07/05 21:10 17.9 42 6.41 4.8 9 11 1027.7 0 14.8 22.0 30.4 79.1 68.0 232.1
07/05 21:00 18.4 41 6.45 4.9 7 13 1027.7 0 14.8 21.9 30.3 79.0 68.0 232.3
07/05 20:50 18.4 41 6.45 4.9 9 11 1027.5 0 14.8 21.9 30.3 79.0 68.0 232.3
07/05 20:40 18 42 6.45 4.9 6 9 1027.4 0 14.8 22.0 30.5 79.4 68.3 233.4
07/05 20:30 18.3 41 6.41 4.8 11 22 1027.5 0 14.8 21.9 30.2 78.7 67.6 231.0
07/05 20:20 18 42 6.45 4.9 6 7 1027.4 0 14.8 22.0 30.5 79.4 68.3 233.4
07/05 20:10 18.3 41 6.41 4.8 9 11 1027.4 0 14.8 21.9 30.2 78.7 67.6 230.9
07/05 20:00 18.6 41 6.52 5.1 17 22 1027.4 0 15.0 22.0 30.5 79.5 68.6 234.5
07/05 19:50 18.5 41 6.49 5 13 19 1027.3 0 14.9 22.0 30.4 79.3 68.4 233.6
07/05 19:40 18.8 40 6.44 4.9 19 20 1027.3 0 14.8 21.8 30.1 78.5 67.5 230.7
07/05 19:30 18.9 39 6.32 4.7 17 24 1027.4 0 14.5 21.6 29.7 77.3 66.1 225.6
07/05 19:20 19 39 6.35 4.7 19 24 1027.4 0 14.6 21.6 29.8 77.5 66.3 226.6
07/05 19:10 18.9 39 6.32 4.7 13 13 1027.3 0 14.5 21.6 29.7 77.3 66.1 225.6
07/05 19:00 19.4 39 6.51 5.1 11 17 1027.4 0 14.9 21.8 30.2 78.6 67.8 231.9
07/05 18:50 19.2 39 6.43 4.9 13 15 1027.2 0 14.8 21.7 30.0 78.0 67.1 229.2
07/05 18:40 18.9 39 6.32 4.7 13 17 1027.1 0 14.5 21.6 29.7 77.3 66.1 225.6
07/05 18:30 19.2 38 6.27 4.6 13 17 1027.1 0 14.4 21.5 29.4 76.5 65.2 222.7
07/05 18:20 19.9 38 6.53 5.2 15 17 1027 0 14.9 21.7 30.0 78.3 67.6 231.2
07/05 18:10 19.6 38 6.41 4.9 11 13 1027 0 14.7 21.6 29.7 77.4 66.5 227.2
07/05 18:00 19.9 37 6.36 4.8 13 17 1027 0 14.6 21.4 29.5 76.7 65.7 224.4
07/05 17:50 20.6 35 6.26 4.6 11 13 1027 0 14.4 21.1 28.9 75.1 64.0 218.6
07/05 17:40 20.7 35 6.3 4.7 11 13 1026.9 0 14.4 21.2 29.0 75.4 64.4 219.9
07/05 17:30 20.9 34 6.19 4.5 17 24 1026.8 0 14.2 21.0 28.5 74.2 63.0 215.0
07/05 17:20 21.1 34 6.26 4.6 20 24 1026.7 0 14.3 21.0 28.7 74.7 63.6 217.2
07/05 17:10 21.5 33 6.22 4.6 15 20 1026.7 0 14.2 20.9 28.4 73.9 62.9 214.6
07/05 17:00 21.7 33 6.29 4.7 24 32 1026.6 0 14.4 20.9 28.6 74.4 63.5 216.8

Last Refresh: 08-May-2026 11:05:30

Bureau of Meteorology